sensor_id;sensor_type;location;lat;lon;timestamp;pressure;altitude;pressure_sealevel;temperature
63588;BMP280;49966;46.896;18.004;2023-07-30T00:01:41;100069.22;;;22.30
63588;BMP280;49966;46.896;18.004;2023-07-30T00:04:11;100063.72;;;22.34
63588;BMP280;49966;46.896;18.004;2023-07-30T00:06:39;100065.69;;;22.33
63588;BMP280;49966;46.896;18.004;2023-07-30T00:09:07;100071.53;;;22.32
63588;BMP280;49966;46.896;18.004;2023-07-30T00:11:36;100066.13;;;22.32
63588;BMP280;49966;46.896;18.004;2023-07-30T00:14:05;100038.34;;;22.31
63588;BMP280;49966;46.896;18.004;2023-07-30T00:16:33;100048.28;;;22.34
63588;BMP280;49966;46.896;18.004;2023-07-30T00:19:01;100042.47;;;22.36
63588;BMP280;49966;46.896;18.004;2023-07-30T00:21:31;100030.78;;;22.26
63588;BMP280;49966;46.896;18.004;2023-07-30T00:23:59;100027.63;;;22.28
63588;BMP280;49966;46.896;18.004;2023-07-30T00:26:27;100016.19;;;22.36
63588;BMP280;49966;46.896;18.004;2023-07-30T00:28:56;100030.13;;;22.35
63588;BMP280;49966;46.896;18.004;2023-07-30T00:31:25;100018.16;;;22.36
63588;BMP280;49966;46.896;18.004;2023-07-30T00:33:53;100031.75;;;22.32
63588;BMP280;49966;46.896;18.004;2023-07-30T00:36:21;100023.78;;;22.29
63588;BMP280;49966;46.896;18.004;2023-07-30T00:38:51;100007.97;;;22.27
63588;BMP280;49966;46.896;18.004;2023-07-30T00:41:19;100010.34;;;22.25
63588;BMP280;49966;46.896;18.004;2023-07-30T00:43:47;100015.00;;;22.25
63588;BMP280;49966;46.896;18.004;2023-07-30T00:46:16;100000.41;;;22.22
63588;BMP280;49966;46.896;18.004;2023-07-30T00:48:44;100012.75;;;22.23
63588;BMP280;49966;46.896;18.004;2023-07-30T00:51:14;100003.88;;;22.23
63588;BMP280;49966;46.896;18.004;2023-07-30T00:53:43;99992.78;;;22.21
63588;BMP280;49966;46.896;18.004;2023-07-30T00:56:13;99993.19;;;22.19
63588;BMP280;49966;46.896;18.004;2023-07-30T00:58:43;99994.81;;;22.16
63588;BMP280;49966;46.896;18.004;2023-07-30T01:01:12;100004.13;;;22.15
63588;BMP280;49966;46.896;18.004;2023-07-30T01:03:40;99978.41;;;22.11
63588;BMP280;49966;46.896;18.004;2023-07-30T01:06:08;99968.66;;;22.13
63588;BMP280;49966;46.896;18.004;2023-07-30T01:08:37;99975.25;;;22.12
63588;BMP280;49966;46.896;18.004;2023-07-30T01:11:05;99977.66;;;22.10
63588;BMP280;49966;46.896;18.004;2023-07-30T01:13:37;99982.59;;;22.12
63588;BMP280;49966;46.896;18.004;2023-07-30T01:16:06;99977.22;;;22.12
63588;BMP280;49966;46.896;18.004;2023-07-30T01:18:34;99971.06;;;22.11
63588;BMP280;49966;46.896;18.004;2023-07-30T01:21:04;99982.25;;;22.10
63588;BMP280;49966;46.896;18.004;2023-07-30T01:23:32;99971.41;;;22.01
63588;BMP280;49966;46.896;18.004;2023-07-30T01:26:03;99972.81;;;21.93
63588;BMP280;49966;46.896;18.004;2023-07-30T01:28:36;99970.50;;;21.91
63588;BMP280;49966;46.896;18.004;2023-07-30T01:31:06;99980.56;;;21.91
63588;BMP280;49966;46.896;18.004;2023-07-30T01:33:37;99988.34;;;21.88
63588;BMP280;49966;46.896;18.004;2023-07-30T01:36:08;99965.47;;;21.80
63588;BMP280;49966;46.896;18.004;2023-07-30T01:38:49;99968.56;;;21.79
63588;BMP280;49966;46.896;18.004;2023-07-30T01:41:18;99985.72;;;21.72
63588;BMP280;49966;46.896;18.004;2023-07-30T01:43:46;99972.53;;;21.61
63588;BMP280;49966;46.896;18.004;2023-07-30T01:46:14;99968.34;;;21.60
63588;BMP280;49966;46.896;18.004;2023-07-30T01:48:43;99971.47;;;21.59
63588;BMP280;49966;46.896;18.004;2023-07-30T01:51:13;99959.25;;;21.54
63588;BMP280;49966;46.896;18.004;2023-07-30T01:53:41;99962.94;;;21.48
63588;BMP280;49966;46.896;18.004;2023-07-30T01:56:09;99971.03;;;21.48
63588;BMP280;49966;46.896;18.004;2023-07-30T01:58:37;99966.56;;;21.41
63588;BMP280;49966;46.896;18.004;2023-07-30T02:01:09;99963.22;;;21.37
63588;BMP280;49966;46.896;18.004;2023-07-30T02:03:37;99964.59;;;21.29
63588;BMP280;49966;46.896;18.004;2023-07-30T02:06:06;99959.00;;;21.23
63588;BMP280;49966;46.896;18.004;2023-07-30T02:08:35;99957.88;;;21.21
63588;BMP280;49966;46.896;18.004;2023-07-30T02:11:04;99972.59;;;21.20
63588;BMP280;49966;46.896;18.004;2023-07-30T02:13:32;99977.38;;;21.12
63588;BMP280;49966;46.896;18.004;2023-07-30T02:16:00;99971.69;;;21.10
63588;BMP280;49966;46.896;18.004;2023-07-30T02:18:30;99976.38;;;21.06
63588;BMP280;49966;46.896;18.004;2023-07-30T02:20:58;99956.13;;;21.01
63588;BMP280;49966;46.896;18.004;2023-07-30T02:23:26;99960.84;;;20.97
63588;BMP280;49966;46.896;18.004;2023-07-30T02:25:56;99965.81;;;20.99
63588;BMP280;49966;46.896;18.004;2023-07-30T02:28:24;99964.41;;;20.94
63588;BMP280;49966;46.896;18.004;2023-07-30T02:30:52;99970.66;;;20.91
63588;BMP280;49966;46.896;18.004;2023-07-30T02:33:21;99954.47;;;20.91
63588;BMP280;49966;46.896;18.004;2023-07-30T02:35:49;99961.19;;;20.83
63588;BMP280;49966;46.896;18.004;2023-07-30T02:38:17;99964.41;;;20.78
63588;BMP280;49966;46.896;18.004;2023-07-30T02:40:46;99965.19;;;20.78
63588;BMP280;49966;46.896;18.004;2023-07-30T02:43:15;99961.19;;;20.83
63588;BMP280;49966;46.896;18.004;2023-07-30T02:45:47;99955.47;;;20.81
63588;BMP280;49966;46.896;18.004;2023-07-30T02:48:15;99968.63;;;20.79
63588;BMP280;49966;46.896;18.004;2023-07-30T02:50:43;99976.28;;;20.80
63588;BMP280;49966;46.896;18.004;2023-07-30T02:53:11;99974.66;;;20.83
63588;BMP280;49966;46.896;18.004;2023-07-30T02:55:40;99973.19;;;20.82
63588;BMP280;49966;46.896;18.004;2023-07-30T02:58:08;99963.16;;;20.83
63588;BMP280;49966;46.896;18.004;2023-07-30T03:00:38;99976.28;;;20.80
63588;BMP280;49966;46.896;18.004;2023-07-30T03:03:06;99963.78;;;20.74
63588;BMP280;49966;46.896;18.004;2023-07-30T03:05:34;99974.63;;;20.70
63588;BMP280;49966;46.896;18.004;2023-07-30T03:08:03;99971.69;;;20.65
63588;BMP280;49966;46.896;18.004;2023-07-30T03:10:31;99975.88;;;20.66
63588;BMP280;49966;46.896;18.004;2023-07-30T03:12:59;99967.19;;;20.58
63588;BMP280;49966;46.896;18.004;2023-07-30T03:15:28;99961.81;;;20.58
63588;BMP280;49966;46.896;18.004;2023-07-30T03:17:57;99963.75;;;20.58
63588;BMP280;49966;46.896;18.004;2023-07-30T03:20:26;99954.59;;;20.55
63588;BMP280;49966;46.896;18.004;2023-07-30T03:22:54;99961.59;;;20.52
63588;BMP280;49966;46.896;18.004;2023-07-30T03:25:22;99960.41;;;20.53
63588;BMP280;49966;46.896;18.004;2023-07-30T03:27:51;99958.03;;;20.56
63588;BMP280;49966;46.896;18.004;2023-07-30T03:30:19;99955.16;;;20.63
63588;BMP280;49966;46.896;18.004;2023-07-30T03:32:47;99963.25;;;20.63
63588;BMP280;49966;46.896;18.004;2023-07-30T03:35:17;99962.84;;;20.64
63588;BMP280;49966;46.896;18.004;2023-07-30T03:37:45;99955.34;;;20.56
63588;BMP280;49966;46.896;18.004;2023-07-30T03:40:13;99954.19;;;20.57
63588;BMP280;49966;46.896;18.004;2023-07-30T03:42:51;99950.53;;;20.63
63588;BMP280;49966;46.896;18.004;2023-07-30T03:45:19;99956.44;;;20.58
63588;BMP280;49966;46.896;18.004;2023-07-30T03:47:48;99970.06;;;20.67
63588;BMP280;49966;46.896;18.004;2023-07-30T03:50:18;99971.69;;;20.65
63588;BMP280;49966;46.896;18.004;2023-07-30T03:52:46;99967.66;;;20.57
63588;BMP280;49966;46.896;18.004;2023-07-30T03:55:15;99969.00;;;20.65
63588;BMP280;49966;46.896;18.004;2023-07-30T03:57:44;99972.44;;;20.65
63588;BMP280;49966;46.896;18.004;2023-07-30T04:00:12;99969.75;;;20.65
63588;BMP280;49966;46.896;18.004;2023-07-30T04:02:41;99968.88;;;20.68
63588;BMP280;49966;46.896;18.004;2023-07-30T04:05:10;99970.19;;;20.64
63588;BMP280;49966;46.896;18.004;2023-07-30T04:07:40;99970.69;;;20.59
63588;BMP280;49966;46.896;18.004;2023-07-30T04:10:09;99971.09;;;20.57
63588;BMP280;49966;46.896;18.004;2023-07-30T04:12:37;99967.16;;;20.62
63588;BMP280;49966;46.896;18.004;2023-07-30T04:15:07;99973.69;;;20.61
63588;BMP280;49966;46.896;18.004;2023-07-30T04:17:36;99977.06;;;20.65
63588;BMP280;49966;46.896;18.004;2023-07-30T04:20:06;99981.97;;;20.70
63588;BMP280;49966;46.896;18.004;2023-07-30T04:22:35;99965.03;;;20.69
63588;BMP280;49966;46.896;18.004;2023-07-30T04:25:09;99973.75;;;20.73
63588;BMP280;49966;46.896;18.004;2023-07-30T04:27:39;99957.72;;;20.70
63588;BMP280;49966;46.896;18.004;2023-07-30T04:30:08;99974.56;;;20.74
63588;BMP280;49966;46.896;18.004;2023-07-30T04:32:36;99965.09;;;20.82
63588;BMP280;49966;46.896;18.004;2023-07-30T04:35:05;99968.44;;;20.86
63588;BMP280;49966;46.896;18.004;2023-07-30T04:37:34;99969.34;;;20.96
63588;BMP280;49966;46.896;18.004;2023-07-30T04:40:04;99963.44;;;21.01
63588;BMP280;49966;46.896;18.004;2023-07-30T04:42:34;99971.78;;;21.06
63588;BMP280;49966;46.896;18.004;2023-07-30T04:45:03;99969.50;;;21.05
63588;BMP280;49966;46.896;18.004;2023-07-30T04:47:32;99978.50;;;21.15
63588;BMP280;49966;46.896;18.004;2023-07-30T04:50:00;99977.22;;;21.19
63588;BMP280;49966;46.896;18.004;2023-07-30T04:52:29;99985.25;;;21.36
63588;BMP280;49966;46.896;18.004;2023-07-30T04:54:58;99989.16;;;21.47
63588;BMP280;49966;46.896;18.004;2023-07-30T04:57:26;99992.50;;;21.51
63588;BMP280;49966;46.896;18.004;2023-07-30T04:59:56;100002.13;;;21.65
63588;BMP280;49966;46.896;18.004;2023-07-30T05:02:29;100004.19;;;21.74
63588;BMP280;49966;46.896;18.004;2023-07-30T05:04:58;100006.34;;;21.79
63588;BMP280;49966;46.896;18.004;2023-07-30T05:07:30;100006.88;;;21.74
63588;BMP280;49966;46.896;18.004;2023-07-30T05:10:01;100016.00;;;21.80
63588;BMP280;49966;46.896;18.004;2023-07-30T05:12:34;100019.09;;;21.78
63588;BMP280;49966;46.896;18.004;2023-07-30T05:15:05;100017.38;;;21.84
63588;BMP280;49966;46.896;18.004;2023-07-30T05:17:34;100003.66;;;21.92
63588;BMP280;49966;46.896;18.004;2023-07-30T05:20:24;100015.75;;;22.00
63588;BMP280;49966;46.896;18.004;2023-07-30T05:23:03;100025.06;;;21.99
63588;BMP280;49966;46.896;18.004;2023-07-30T05:25:34;100001.94;;;21.98
63588;BMP280;49966;46.896;18.004;2023-07-30T05:28:16;100019.66;;;22.11
63588;BMP280;49966;46.896;18.004;2023-07-30T05:30:56;100022.56;;;22.17
63588;BMP280;49966;46.896;18.004;2023-07-30T05:33:37;100021.78;;;22.29
63588;BMP280;49966;46.896;18.004;2023-07-30T05:36:12;100030.88;;;22.35
63588;BMP280;49966;46.896;18.004;2023-07-30T05:38:59;100040.81;;;22.51
63588;BMP280;49966;46.896;18.004;2023-07-30T05:41:28;100034.81;;;22.69
63588;BMP280;49966;46.896;18.004;2023-07-30T05:43:56;100049.06;;;22.82
63588;BMP280;49966;46.896;18.004;2023-07-30T05:46:26;100056.19;;;22.89
63588;BMP280;49966;46.896;18.004;2023-07-30T05:48:54;100058.34;;;22.94
63588;BMP280;49966;46.896;18.004;2023-07-30T05:51:22;100065.97;;;22.95
63588;BMP280;49966;46.896;18.004;2023-07-30T05:53:51;100080.69;;;22.94
63588;BMP280;49966;46.896;18.004;2023-07-30T05:56:29;100072.69;;;22.91
63588;BMP280;49966;46.896;18.004;2023-07-30T05:58:57;100079.31;;;22.90
63588;BMP280;49966;46.896;18.004;2023-07-30T06:01:27;100073.41;;;22.82
63588;BMP280;49966;46.896;18.004;2023-07-30T06:03:56;100055.31;;;22.79
63588;BMP280;49966;46.896;18.004;2023-07-30T06:06:24;100058.72;;;22.70
63588;BMP280;49966;46.896;18.004;2023-07-30T06:08:55;100065.63;;;22.71
63588;BMP280;49966;46.896;18.004;2023-07-30T06:11:24;100056.09;;;22.80
63588;BMP280;49966;46.896;18.004;2023-07-30T06:13:53;100054.66;;;22.88
63588;BMP280;49966;46.896;18.004;2023-07-30T06:16:23;100069.72;;;22.89
63588;BMP280;49966;46.896;18.004;2023-07-30T06:18:58;100068.81;;;22.92
63588;BMP280;49966;46.896;18.004;2023-07-30T06:21:27;100050.78;;;22.89
63588;BMP280;49966;46.896;18.004;2023-07-30T06:23:55;100060.84;;;22.76
63588;BMP280;49966;46.896;18.004;2023-07-30T06:26:41;100048.72;;;22.80
63588;BMP280;49966;46.896;18.004;2023-07-30T06:29:10;100052.63;;;22.79
63588;BMP280;49966;46.896;18.004;2023-07-30T06:31:41;100068.66;;;22.74
63588;BMP280;49966;46.896;18.004;2023-07-30T06:34:11;100087.88;;;22.76
63588;BMP280;49966;46.896;18.004;2023-07-30T06:36:40;100075.13;;;22.76
63588;BMP280;49966;46.896;18.004;2023-07-30T06:39:10;100089.75;;;22.79
63588;BMP280;49966;46.896;18.004;2023-07-30T06:41:39;100085.41;;;22.81
63588;BMP280;49966;46.896;18.004;2023-07-30T06:44:09;100106.78;;;22.76
63588;BMP280;49966;46.896;18.004;2023-07-30T06:46:37;100113.63;;;22.80
63588;BMP280;49966;46.896;18.004;2023-07-30T06:49:07;100108.34;;;22.77
63588;BMP280;49966;46.896;18.004;2023-07-30T06:51:37;100112.53;;;22.78
63588;BMP280;49966;46.896;18.004;2023-07-30T06:54:06;100101.34;;;22.66
63588;BMP280;49966;46.896;18.004;2023-07-30T06:56:34;100111.38;;;22.53
63588;BMP280;49966;46.896;18.004;2023-07-30T06:59:05;100106.84;;;22.50
63588;BMP280;49966;46.896;18.004;2023-07-30T07:01:33;100119.41;;;22.44
63588;BMP280;49966;46.896;18.004;2023-07-30T07:04:04;100119.81;;;22.42
63588;BMP280;49966;46.896;18.004;2023-07-30T07:06:32;100103.28;;;22.40
63588;BMP280;49966;46.896;18.004;2023-07-30T07:09:02;100104.88;;;22.38
63588;BMP280;49966;46.896;18.004;2023-07-30T07:11:31;100104.88;;;22.38
63588;BMP280;49966;46.896;18.004;2023-07-30T07:13:59;100114.53;;;22.39
63588;BMP280;49966;46.896;18.004;2023-07-30T07:16:28;100114.00;;;22.44
63588;BMP280;49966;46.896;18.004;2023-07-30T07:18:56;100122.94;;;22.41
63588;BMP280;49966;46.896;18.004;2023-07-30T07:21:30;100136.91;;;22.39
63588;BMP280;49966;46.896;18.004;2023-07-30T07:23:58;100136.34;;;22.32
63588;BMP280;49966;46.896;18.004;2023-07-30T07:26:28;100135.38;;;22.26
63588;BMP280;49966;46.896;18.004;2023-07-30T07:28:57;100127.34;;;22.22
63588;BMP280;49966;46.896;18.004;2023-07-30T07:31:26;100132.75;;;22.09
63588;BMP280;49966;46.896;18.004;2023-07-30T07:33:55;100145.47;;;21.96
63588;BMP280;49966;46.896;18.004;2023-07-30T07:36:23;100135.72;;;21.86
63588;BMP280;49966;46.896;18.004;2023-07-30T07:38:51;100138.97;;;21.81
63588;BMP280;49966;46.896;18.004;2023-07-30T07:41:19;100133.34;;;21.75
63588;BMP280;49966;46.896;18.004;2023-07-30T07:43:49;100141.94;;;21.70
63588;BMP280;49966;46.896;18.004;2023-07-30T07:46:19;100149.16;;;21.60
63588;BMP280;49966;46.896;18.004;2023-07-30T07:48:48;100117.16;;;21.59
63588;BMP280;49966;46.896;18.004;2023-07-30T07:51:16;100127.22;;;21.58
63588;BMP280;49966;46.896;18.004;2023-07-30T07:53:45;100115.38;;;21.40
63588;BMP280;49966;46.896;18.004;2023-07-30T07:56:13;100094.72;;;21.33
63588;BMP280;49966;46.896;18.004;2023-07-30T07:58:46;100105.69;;;21.26
63588;BMP280;49966;46.896;18.004;2023-07-30T08:01:16;100102.03;;;21.20
63588;BMP280;49966;46.896;18.004;2023-07-30T08:03:46;100099.72;;;21.18
63588;BMP280;49966;46.896;18.004;2023-07-30T08:06:14;100084.31;;;21.19
63588;BMP280;49966;46.896;18.004;2023-07-30T08:08:43;100085.75;;;21.23
63588;BMP280;49966;46.896;18.004;2023-07-30T08:11:19;100092.31;;;21.22
63588;BMP280;49966;46.896;18.004;2023-07-30T08:13:47;100091.56;;;21.22
63588;BMP280;49966;46.896;18.004;2023-07-30T08:16:17;100076.78;;;21.26
63588;BMP280;49966;46.896;18.004;2023-07-30T08:18:50;100073.34;;;21.26
63588;BMP280;49966;46.896;18.004;2023-07-30T08:21:19;100066.09;;;21.23
63588;BMP280;49966;46.896;18.004;2023-07-30T08:23:53;100081.94;;;21.21
63588;BMP280;49966;46.896;18.004;2023-07-30T08:26:21;100071.59;;;21.19
63588;BMP280;49966;46.896;18.004;2023-07-30T08:28:49;100065.44;;;21.19
63588;BMP280;49966;46.896;18.004;2023-07-30T08:31:22;100078.16;;;21.18
63588;BMP280;49966;46.896;18.004;2023-07-30T08:33:51;100055.31;;;21.23
63588;BMP280;49966;46.896;18.004;2023-07-30T08:36:19;100069.47;;;21.27
63588;BMP280;49966;46.896;18.004;2023-07-30T08:38:49;100058.34;;;21.25
63588;BMP280;49966;46.896;18.004;2023-07-30T08:41:22;100056.50;;;21.22
63588;BMP280;49966;46.896;18.004;2023-07-30T08:43:50;100061.13;;;21.21
63588;BMP280;49966;46.896;18.004;2023-07-30T08:46:19;100062.91;;;21.28
63588;BMP280;49966;46.896;18.004;2023-07-30T08:48:49;100062.53;;;21.26
63588;BMP280;49966;46.896;18.004;2023-07-30T08:51:18;100065.69;;;21.24
63588;BMP280;49966;46.896;18.004;2023-07-30T08:53:47;100063.47;;;21.36
63588;BMP280;49966;46.896;18.004;2023-07-30T08:56:16;100054.44;;;21.42
63588;BMP280;49966;46.896;18.004;2023-07-30T08:58:46;100049.72;;;21.30
63588;BMP280;49966;46.896;18.004;2023-07-30T09:01:18;100035.31;;;21.37
63588;BMP280;49966;46.896;18.004;2023-07-30T09:03:58;100053.00;;;21.38
63588;BMP280;49966;46.896;18.004;2023-07-30T09:06:27;100045.66;;;21.38
63588;BMP280;49966;46.896;18.004;2023-07-30T09:08:58;100040.69;;;21.37
63588;BMP280;49966;46.896;18.004;2023-07-30T09:11:36;100034.88;;;21.38
63588;BMP280;49966;46.896;18.004;2023-07-30T09:14:06;100047.69;;;21.34
63588;BMP280;49966;46.896;18.004;2023-07-30T09:16:34;100028.00;;;21.21
63588;BMP280;49966;46.896;18.004;2023-07-30T09:19:06;100032.81;;;21.13
63588;BMP280;49966;46.896;18.004;2023-07-30T09:21:35;100041.25;;;21.15
63588;BMP280;49966;46.896;18.004;2023-07-30T09:24:04;100024.16;;;21.05
63588;BMP280;49966;46.896;18.004;2023-07-30T09:26:43;100025.72;;;21.06
63588;BMP280;49966;46.896;18.004;2023-07-30T09:29:11;100031.75;;;21.11
63588;BMP280;49966;46.896;18.004;2023-07-30T09:34:44;100045.09;;;21.01
63588;BMP280;49966;46.896;18.004;2023-07-30T09:37:26;100058.97;;;21.00
63588;BMP280;49966;46.896;18.004;2023-07-30T09:40:38;100055.44;;;21.03
63588;BMP280;49966;46.896;18.004;2023-07-30T09:43:14;100052.66;;;21.06
63588;BMP280;49966;46.896;18.004;2023-07-30T09:45:53;100048.16;;;21.16
63588;BMP280;49966;46.896;18.004;2023-07-30T09:48:52;100029.31;;;21.29
63588;BMP280;49966;46.896;18.004;2023-07-30T09:51:25;100026.47;;;21.36
63588;BMP280;49966;46.896;18.004;2023-07-30T09:54:17;100032.41;;;21.44
63588;BMP280;49966;46.896;18.004;2023-07-30T09:56:47;100017.28;;;21.46
63588;BMP280;49966;46.896;18.004;2023-07-30T09:59:15;100014.09;;;21.51
63588;BMP280;49966;46.896;18.004;2023-07-30T10:01:46;100002.31;;;21.45
63588;BMP280;49966;46.896;18.004;2023-07-30T10:04:20;100004.31;;;21.41
63588;BMP280;49966;46.896;18.004;2023-07-30T10:06:56;100006.72;;;21.39
63588;BMP280;49966;46.896;18.004;2023-07-30T10:09:30;100024.97;;;21.48
63588;BMP280;49966;46.896;18.004;2023-07-30T10:11:59;100007.81;;;21.54
63588;BMP280;49966;46.896;18.004;2023-07-30T10:14:30;100012.72;;;21.72
63588;BMP280;49966;46.896;18.004;2023-07-30T10:16:59;100017.31;;;21.59
63588;BMP280;49966;46.896;18.004;2023-07-30T10:19:33;100018.75;;;21.64
63588;BMP280;49966;46.896;18.004;2023-07-30T10:22:23;100022.88;;;21.68
63588;BMP280;49966;46.896;18.004;2023-07-30T10:24:56;100009.72;;;21.83
63588;BMP280;49966;46.896;18.004;2023-07-30T10:27:25;100022.78;;;21.84
63588;BMP280;49966;46.896;18.004;2023-07-30T10:30:13;100010.25;;;21.78
63588;BMP280;49966;46.896;18.004;2023-07-30T10:33:02;99985.72;;;21.72
63588;BMP280;49966;46.896;18.004;2023-07-30T10:35:35;100002.50;;;21.80
63588;BMP280;49966;46.896;18.004;2023-07-30T10:38:28;100008.66;;;21.80
63588;BMP280;49966;46.896;18.004;2023-07-30T10:41:01;100022.22;;;21.89
63588;BMP280;49966;46.896;18.004;2023-07-30T10:43:35;100011.91;;;22.01
63588;BMP280;49966;46.896;18.004;2023-07-30T10:46:06;100003.13;;;21.97
63588;BMP280;49966;46.896;18.004;2023-07-30T10:49:03;100011.03;;;22.16
63588;BMP280;49966;46.896;18.004;2023-07-30T10:51:57;100014.13;;;22.40
63588;BMP280;49966;46.896;18.004;2023-07-30T10:54:42;100017.13;;;22.55
63588;BMP280;49966;46.896;18.004;2023-07-30T10:57:19;100010.91;;;22.67
63588;BMP280;49966;46.896;18.004;2023-07-30T10:59:49;100015.38;;;22.61
63588;BMP280;49966;46.896;18.004;2023-07-30T11:02:23;100033.00;;;22.66
63588;BMP280;49966;46.896;18.004;2023-07-30T11:05:11;100029.84;;;22.67
63588;BMP280;49966;46.896;18.004;2023-07-30T11:08:02;100033.75;;;22.66
63588;BMP280;49966;46.896;18.004;2023-07-30T11:10:50;100024.88;;;23.22
63588;BMP280;49966;46.896;18.004;2023-07-30T11:13:45;100034.66;;;23.51
63588;BMP280;49966;46.896;18.004;2023-07-30T11:16:48;100050.72;;;23.98
63588;BMP280;49966;46.896;18.004;2023-07-30T11:19:18;100077.56;;;24.24
63588;BMP280;49966;46.896;18.004;2023-07-30T11:21:47;100091.31;;;24.38
63588;BMP280;49966;46.896;18.004;2023-07-30T11:24:21;100110.88;;;24.42
63588;BMP280;49966;46.896;18.004;2023-07-30T11:26:59;100103.13;;;24.13
63588;BMP280;49966;46.896;18.004;2023-07-30T11:29:28;100095.03;;;24.23
63588;BMP280;49966;46.896;18.004;2023-07-30T11:31:59;100090.06;;;24.21
63588;BMP280;49966;46.896;18.004;2023-07-30T11:34:31;100090.88;;;24.49
63588;BMP280;49966;46.896;18.004;2023-07-30T11:37:05;100103.75;;;24.76
63588;BMP280;49966;46.896;18.004;2023-07-30T11:39:34;100087.31;;;24.80
63588;BMP280;49966;46.896;18.004;2023-07-30T11:42:04;100097.72;;;24.81
63588;BMP280;49966;46.896;18.004;2023-07-30T11:44:35;100105.56;;;25.07
63588;BMP280;49966;46.896;18.004;2023-07-30T11:47:05;100100.84;;;25.16
63588;BMP280;49966;46.896;18.004;2023-07-30T11:49:33;100092.56;;;25.38
63588;BMP280;49966;46.896;18.004;2023-07-30T11:52:05;100100.66;;;25.57
63588;BMP280;49966;46.896;18.004;2023-07-30T11:54:35;100096.63;;;25.34
63588;BMP280;49966;46.896;18.004;2023-07-30T11:57:06;100079.47;;;25.18
63588;BMP280;49966;46.896;18.004;2023-07-30T11:59:34;100081.09;;;25.16
63588;BMP280;49966;46.896;18.004;2023-07-30T12:02:17;100090.91;;;25.22
63588;BMP280;49966;46.896;18.004;2023-07-30T12:04:45;100090.03;;;25.25
63588;BMP280;49966;46.896;18.004;2023-07-30T12:07:32;100095.13;;;25.23
63588;BMP280;49966;46.896;18.004;2023-07-30T12:10:14;100084.41;;;25.38
63588;BMP280;49966;46.896;18.004;2023-07-30T12:12:51;100099.19;;;25.37
63588;BMP280;49966;46.896;18.004;2023-07-30T12:15:20;100087.41;;;25.40
63588;BMP280;49966;46.896;18.004;2023-07-30T12:17:49;100095.72;;;25.37
63588;BMP280;49966;46.896;18.004;2023-07-30T12:20:18;100087.13;;;25.38
63588;BMP280;49966;46.896;18.004;2023-07-30T12:22:46;100084.09;;;25.54
63588;BMP280;49966;46.896;18.004;2023-07-30T12:25:15;100100.97;;;25.92
63588;BMP280;49966;46.896;18.004;2023-07-30T12:27:49;100095.44;;;26.19
63588;BMP280;49966;46.896;18.004;2023-07-30T12:30:18;100103.88;;;26.21
63588;BMP280;49966;46.896;18.004;2023-07-30T12:32:46;100091.22;;;26.18
63588;BMP280;49966;46.896;18.004;2023-07-30T12:35:15;100116.97;;;25.99
63588;BMP280;49966;46.896;18.004;2023-07-30T12:37:43;100093.34;;;26.38
63588;BMP280;49966;46.896;18.004;2023-07-30T12:40:12;100090.59;;;26.14
63588;BMP280;49966;46.896;18.004;2023-07-30T12:42:40;100077.84;;;26.05
63588;BMP280;49966;46.896;18.004;2023-07-30T12:45:11;100080.47;;;25.91
63588;BMP280;49966;46.896;18.004;2023-07-30T12:47:42;100080.75;;;25.60
63588;BMP280;49966;46.896;18.004;2023-07-30T12:50:15;100082.34;;;25.75
63588;BMP280;49966;46.896;18.004;2023-07-30T12:52:43;100075.69;;;26.09
63588;BMP280;49966;46.896;18.004;2023-07-30T12:55:11;100080.22;;;26.12
63588;BMP280;49966;46.896;18.004;2023-07-30T12:57:39;100090.41;;;26.27
63588;BMP280;49966;46.896;18.004;2023-07-30T13:00:13;100081.16;;;26.33
63588;BMP280;49966;46.896;18.004;2023-07-30T13:02:42;100065.81;;;26.21
63588;BMP280;49966;46.896;18.004;2023-07-30T13:05:12;100069.94;;;26.17
63588;BMP280;49966;46.896;18.004;2023-07-30T13:07:44;100068.34;;;26.01
63588;BMP280;49966;46.896;18.004;2023-07-30T13:10:14;100057.41;;;26.34
63588;BMP280;49966;46.896;18.004;2023-07-30T13:12:43;100060.78;;;26.67
63588;BMP280;49966;46.896;18.004;2023-07-30T13:15:22;100077.44;;;26.69
63588;BMP280;49966;46.896;18.004;2023-07-30T13:17:51;100056.63;;;26.57
63588;BMP280;49966;46.896;18.004;2023-07-30T13:20:20;100059.22;;;26.37
63588;BMP280;49966;46.896;18.004;2023-07-30T13:22:54;100036.59;;;26.31
63588;BMP280;49966;46.896;18.004;2023-07-30T13:25:28;100053.41;;;26.44
63588;BMP280;49966;46.896;18.004;2023-07-30T13:27:57;100051.03;;;26.61
63588;BMP280;49966;46.896;18.004;2023-07-30T13:30:30;100059.84;;;26.56
63588;BMP280;49966;46.896;18.004;2023-07-30T13:33:02;100036.75;;;26.12
63588;BMP280;49966;46.896;18.004;2023-07-30T13:35:34;100029.72;;;25.97
63588;BMP280;49966;46.896;18.004;2023-07-30T13:38:17;100039.19;;;25.77
63588;BMP280;49966;46.896;18.004;2023-07-30T13:40:55;100048.88;;;25.69
63588;BMP280;49966;46.896;18.004;2023-07-30T13:43:25;100040.47;;;25.91
63588;BMP280;49966;46.896;18.004;2023-07-30T13:46:01;100024.63;;;25.90
63588;BMP280;49966;46.896;18.004;2023-07-30T13:49:00;100038.25;;;26.04
63588;BMP280;49966;46.896;18.004;2023-07-30T13:51:54;100007.97;;;25.97
63588;BMP280;49966;46.896;18.004;2023-07-30T13:54:30;100002.31;;;25.86
63588;BMP280;49966;46.896;18.004;2023-07-30T13:57:03;100012.25;;;25.89
63588;BMP280;49966;46.896;18.004;2023-07-30T13:59:34;100000.78;;;25.84
63588;BMP280;49966;46.896;18.004;2023-07-30T14:06:09;100002.97;;;25.71
63588;BMP280;49966;46.896;18.004;2023-07-30T14:08:38;99989.16;;;25.84
63588;BMP280;49966;46.896;18.004;2023-07-30T14:11:17;99982.00;;;25.72
63588;BMP280;49966;46.896;18.004;2023-07-30T14:13:49;99990.78;;;25.67
63588;BMP280;49966;46.896;18.004;2023-07-30T14:16:22;99985.94;;;25.71
63588;BMP280;49966;46.896;18.004;2023-07-30T14:18:54;99996.16;;;25.52
63588;BMP280;49966;46.896;18.004;2023-07-30T14:21:35;99978.88;;;25.64